createdAt,value
2019-02-08T00:02:27.258Z,2.10
2019-02-08T00:04:58.689Z,2.10
2019-02-08T00:07:30.154Z,2.10
2019-02-08T00:10:02.072Z,2.10
2019-02-08T00:12:34.317Z,2.20
2019-02-08T00:15:06.588Z,2.10
2019-02-08T00:17:38.282Z,2.10
2019-02-08T00:20:10.203Z,2.20
2019-02-08T00:22:41.541Z,2.10
2019-02-08T00:25:16.017Z,2.10
2019-02-08T00:27:47.707Z,2.10
2019-02-08T00:30:22.556Z,2.10
2019-02-08T00:32:54.506Z,2.10
2019-02-08T00:35:25.840Z,2.10
2019-02-08T00:37:57.262Z,2.10
2019-02-08T00:40:28.885Z,2.10
2019-02-08T00:43:00.961Z,2.10
2019-02-08T00:45:32.408Z,2.00
2019-02-08T00:48:03.790Z,2.00
2019-02-08T00:50:35.084Z,2.10
2019-02-08T00:53:07.121Z,2.00
2019-02-08T00:55:38.646Z,2.00
2019-02-08T00:58:10.183Z,2.00
2019-02-08T01:00:42.739Z,2.00
2019-02-08T01:03:14.405Z,2.00
2019-02-08T01:05:45.833Z,2.00
2019-02-08T01:08:17.117Z,2.00
2019-02-08T01:10:48.503Z,2.00
2019-02-08T01:13:19.851Z,2.00
2019-02-08T01:15:51.022Z,2.00
2019-02-08T01:18:22.332Z,2.00
2019-02-08T01:20:53.503Z,2.00
2019-02-08T01:23:25.145Z,2.00
2019-02-08T01:25:56.476Z,2.00
2019-02-08T01:28:28.010Z,2.00
2019-02-08T01:31:00.673Z,2.10
2019-02-08T01:33:32.035Z,2.10
2019-02-08T01:36:03.414Z,2.10
2019-02-08T01:38:34.860Z,2.10
2019-02-08T01:41:06.591Z,2.10
2019-02-08T01:43:37.943Z,2.00
2019-02-08T01:46:10.191Z,2.10
2019-02-08T01:48:42.633Z,2.10
2019-02-08T01:51:14.097Z,2.00
2019-02-08T01:53:48.721Z,2.10
2019-02-08T01:56:18.683Z,2.10
2019-02-08T01:58:49.845Z,2.00
2019-02-08T02:01:22.241Z,2.00
2019-02-08T02:03:53.820Z,2.10
2019-02-08T02:06:25.107Z,2.10
2019-02-08T02:08:56.316Z,2.00
2019-02-08T02:11:27.510Z,2.00
2019-02-08T02:13:58.811Z,2.00
2019-02-08T02:16:30.242Z,2.00
2019-02-08T02:19:01.872Z,2.00
2019-02-08T02:21:33.328Z,1.90
2019-02-08T02:24:04.609Z,1.80
2019-02-08T02:26:36.059Z,1.80
2019-02-08T02:29:07.645Z,1.80
2019-02-08T02:31:38.965Z,1.80
2019-02-08T02:34:10.773Z,1.80
2019-02-08T02:36:42.966Z,1.80
2019-02-08T02:39:14.845Z,1.80
2019-02-08T02:41:46.001Z,1.90
2019-02-08T02:44:17.423Z,1.80
2019-02-08T02:46:48.747Z,1.80
2019-02-08T02:49:20.930Z,1.80
2019-02-08T02:51:51.769Z,1.80
2019-02-08T02:54:23.242Z,1.90
2019-02-08T02:56:54.604Z,1.90
2019-02-08T02:59:25.832Z,1.80
2019-02-08T03:01:57.003Z,1.80
2019-02-08T03:04:28.200Z,1.80
2019-02-08T03:07:00.250Z,1.80
2019-02-08T03:09:31.361Z,1.70
2019-02-08T03:12:02.554Z,1.70
2019-02-08T03:14:33.970Z,1.80
2019-02-08T03:17:05.357Z,1.80
2019-02-08T03:19:36.426Z,1.70
2019-02-08T03:22:07.790Z,1.60
2019-02-08T03:24:39.496Z,1.60
2019-02-08T03:27:10.686Z,1.60
2019-02-08T03:29:41.852Z,1.70
2019-02-08T03:32:12.969Z,1.60
2019-02-08T03:34:44.054Z,1.50
2019-02-08T03:37:15.143Z,1.50
2019-02-08T03:39:46.302Z,1.50
2019-02-08T03:42:17.382Z,1.50
2019-02-08T03:44:48.203Z,1.40
2019-02-08T03:47:19.419Z,1.40
2019-02-08T03:49:50.687Z,1.40
2019-02-08T03:52:22.057Z,1.30
2019-02-08T03:54:53.283Z,1.20
2019-02-08T03:57:25.488Z,1.30
2019-02-08T03:59:56.605Z,1.20
2019-02-08T04:02:27.886Z,1.30
2019-02-08T04:04:59.320Z,1.40
2019-02-08T04:07:30.522Z,1.30
2019-02-08T04:10:02.206Z,1.30
2019-02-08T04:12:33.482Z,1.30
2019-02-08T04:15:05.696Z,1.30
2019-02-08T04:17:36.998Z,1.40
2019-02-08T04:20:09.248Z,1.40
2019-02-08T04:22:40.486Z,1.30
2019-02-08T04:25:12.375Z,1.20
2019-02-08T04:27:44.816Z,1.10
2019-02-08T04:30:25.794Z,1.20
2019-02-08T04:32:57.209Z,1.10
2019-02-08T04:35:28.662Z,1.10
2019-02-08T04:38:00.288Z,1.10
2019-02-08T04:40:31.584Z,1.10
2019-02-08T04:43:03.343Z,1.10
2019-02-08T04:45:36.354Z,1.00
2019-02-08T04:48:07.221Z,1.00
2019-02-08T04:50:38.506Z,1.00
2019-02-08T04:53:09.583Z,1.10
2019-02-08T04:55:40.748Z,1.10
2019-02-08T04:58:12.263Z,1.10
2019-02-08T05:00:43.782Z,1.20
2019-02-08T05:03:15.793Z,1.10
2019-02-08T05:05:46.889Z,1.20
2019-02-08T05:08:17.573Z,1.20
2019-02-08T05:10:48.365Z,1.20
2019-02-08T05:13:19.073Z,1.30
2019-02-08T05:15:49.837Z,1.30
2019-02-08T05:18:20.597Z,1.30
2019-02-08T05:20:51.292Z,1.30
2019-02-08T05:23:22.055Z,1.30
2019-02-08T05:25:53.833Z,1.30
2019-02-08T05:28:24.680Z,1.40
2019-02-08T05:30:55.386Z,1.30
2019-02-08T05:33:26.661Z,1.40
2019-02-08T05:35:57.484Z,1.40
2019-02-08T05:38:28.146Z,1.40
2019-02-08T05:40:58.875Z,1.40
2019-02-08T05:43:31.385Z,1.30
2019-02-08T05:46:03.128Z,1.40
2019-02-08T05:48:33.745Z,1.40
2019-02-08T05:51:04.417Z,1.40
2019-02-08T05:53:35.050Z,1.30
2019-02-08T05:56:05.939Z,1.30
2019-02-08T05:58:36.603Z,1.30
2019-02-08T06:01:07.307Z,1.30
2019-02-08T06:03:38.505Z,1.30
2019-02-08T06:06:09.350Z,1.30
2019-02-08T06:08:40.464Z,1.40
2019-02-08T06:11:11.113Z,1.40
2019-02-08T06:13:41.878Z,1.40
2019-02-08T06:16:12.535Z,1.30
2019-02-08T06:18:44.277Z,1.40
2019-02-08T06:21:14.938Z,1.40
2019-02-08T06:23:45.943Z,1.40
2019-02-08T06:26:16.603Z,1.40
2019-02-08T06:28:47.279Z,1.40
2019-02-08T06:31:18.572Z,1.50
2019-02-08T06:33:49.247Z,1.40
2019-02-08T06:36:19.891Z,1.40
2019-02-08T06:38:50.541Z,1.40
2019-02-08T06:41:21.454Z,1.30
2019-02-08T06:43:52.102Z,1.40
2019-02-08T06:46:22.938Z,1.40
2019-02-08T06:48:54.361Z,1.40
2019-02-08T06:51:25.810Z,1.40
2019-02-08T06:53:56.537Z,1.40
2019-02-08T06:56:45.302Z,1.50
2019-02-08T06:59:26.722Z,1.40
2019-02-08T07:02:19.329Z,1.60
2019-02-08T07:05:08.898Z,1.60
2019-02-08T07:07:50.360Z,1.60
2019-02-08T07:10:45.995Z,1.70
2019-02-08T07:13:28.038Z,1.70
2019-02-08T07:16:21.311Z,1.80
2019-02-08T07:19:00.123Z,1.80
2019-02-08T07:21:49.720Z,1.90
2019-02-08T07:24:39.788Z,2.00
2019-02-08T07:27:21.992Z,2.00
2019-02-08T07:30:02.786Z,2.00
2019-02-08T07:32:44.096Z,2.20
2019-02-08T07:35:43.938Z,2.20
2019-02-08T07:38:36.046Z,2.10
2019-02-08T07:41:27.582Z,2.20
2019-02-08T07:44:17.614Z,2.40
2019-02-08T07:47:14.580Z,2.30
2019-02-08T07:50:14.575Z,2.40
2019-02-08T07:52:59.329Z,2.50
2019-02-08T07:55:43.493Z,2.80
2019-02-08T07:58:33.368Z,2.80
2019-02-08T08:01:36.260Z,2.80
2019-02-08T08:04:29.156Z,3.10
2019-02-08T08:07:25.619Z,3.10
2019-02-08T08:10:10.966Z,3.20
2019-02-08T08:13:09.394Z,3.30
2019-02-08T08:16:04.100Z,3.30
2019-02-08T08:18:54.422Z,3.40
2019-02-08T08:21:48.332Z,3.60
2019-02-08T08:24:44.716Z,3.60
2019-02-08T08:27:24.763Z,3.60
2019-02-08T08:30:14.744Z,3.70
2019-02-08T08:33:19.388Z,3.70
2019-02-08T08:36:21.508Z,3.80
2019-02-08T08:39:59.180Z,3.90
2019-02-08T08:43:32.444Z,3.90
2019-02-08T08:46:38.093Z,3.90
2019-02-08T08:50:13.042Z,4.10
2019-02-08T08:53:54.560Z,4.00
2019-02-08T08:57:28.024Z,4.00
2019-02-08T09:00:51.800Z,4.20
2019-02-08T09:04:19.509Z,4.30
2019-02-08T09:07:28.261Z,4.40
2019-02-08T09:10:57.910Z,4.50
2019-02-08T09:14:29.275Z,4.50
2019-02-08T09:18:04.082Z,4.60
2019-02-08T09:21:35.904Z,4.70
2019-02-08T09:24:57.770Z,4.70
2019-02-08T09:28:34.041Z,4.80
2019-02-08T09:32:19.595Z,4.80
2019-02-08T09:35:31.824Z,5.00
2019-02-08T09:39:11.317Z,5.00
2019-02-08T09:42:26.778Z,5.20
2019-02-08T09:46:05.129Z,5.20
2019-02-08T09:49:53.067Z,5.30
2019-02-08T09:53:15.786Z,5.50
2019-02-08T09:56:57.843Z,5.40
2019-02-08T10:00:40.369Z,5.50
2019-02-08T10:04:05.542Z,5.70
2019-02-08T10:07:30.089Z,5.70
2019-02-08T10:10:59.689Z,5.90
2019-02-08T10:14:35.961Z,5.90
2019-02-08T10:18:16.051Z,6.00
2019-02-08T10:21:51.200Z,6.10
2019-02-08T10:25:15.954Z,6.20
2019-02-08T10:29:17.253Z,6.30
2019-02-08T10:32:59.360Z,6.40
2019-02-08T10:36:59.562Z,6.50
2019-02-08T10:40:32.509Z,6.50
2019-02-08T10:44:11.075Z,6.70
2019-02-08T10:48:00.283Z,6.80
2019-02-08T10:51:32.654Z,7.10
2019-02-08T10:54:52.689Z,7.20
2019-02-08T10:58:28.143Z,7.20
2019-02-08T11:02:13.986Z,7.10
2019-02-08T11:05:44.139Z,7.20
2019-02-08T11:09:19.788Z,7.20
2019-02-08T11:13:05.743Z,7.30
2019-02-08T11:16:41.772Z,7.30
2019-02-08T11:19:19.841Z,7.40
2019-02-08T11:21:52.388Z,7.40
2019-02-08T11:24:28.119Z,7.40
2019-02-08T11:27:02.220Z,7.30
2019-02-08T11:29:32.867Z,7.40
2019-02-08T11:32:03.610Z,7.50
2019-02-08T11:34:34.253Z,7.30
2019-02-08T11:37:06.242Z,7.20
2019-02-08T11:39:37.220Z,7.20
2019-02-08T11:42:07.895Z,7.30
2019-02-08T11:44:39.363Z,7.20
2019-02-08T11:47:10.077Z,7.40
2019-02-08T11:49:45.396Z,7.50
2019-02-08T11:52:16.189Z,7.80
2019-02-08T11:54:46.991Z,7.90
2019-02-08T11:57:18.001Z,7.70
2019-02-08T11:59:48.697Z,7.80
2019-02-08T12:02:19.393Z,7.90
2019-02-08T12:04:50.045Z,8.00
2019-02-08T12:07:20.726Z,7.90
2019-02-08T12:09:51.420Z,7.90
2019-02-08T12:12:22.167Z,7.90
2019-02-08T12:14:52.851Z,7.90
2019-02-08T12:17:23.536Z,8.00
2019-02-08T12:19:54.352Z,8.00
2019-02-08T12:22:25.006Z,7.70
2019-02-08T12:24:56.670Z,7.70
2019-02-08T12:27:27.471Z,7.70
2019-02-08T12:29:58.272Z,7.90
2019-02-08T12:32:28.896Z,8.00
2019-02-08T12:34:59.542Z,8.10
2019-02-08T12:37:30.226Z,8.30
2019-02-08T12:40:01.439Z,8.40
2019-02-08T12:42:32.129Z,8.60
2019-02-08T12:45:02.808Z,8.40
2019-02-08T12:47:33.518Z,8.40
2019-02-08T12:50:04.490Z,8.40
2019-02-08T12:52:35.149Z,8.60
2019-02-08T12:55:07.571Z,8.80
2019-02-08T12:57:39.077Z,8.70
2019-02-08T13:00:14.745Z,8.70
2019-02-08T13:02:45.767Z,8.80
2019-02-08T13:05:16.956Z,8.70
2019-02-08T13:07:47.990Z,8.50
2019-02-08T13:10:22.111Z,8.60
2019-02-08T13:12:53.067Z,8.50
2019-02-08T13:15:24.162Z,8.30
2019-02-08T13:17:54.816Z,8.20
2019-02-08T13:20:27.054Z,8.20
2019-02-08T13:22:57.837Z,8.30
2019-02-08T13:25:28.638Z,8.40
2019-02-08T13:28:02.153Z,8.40
2019-02-08T13:30:33.323Z,8.30
2019-02-08T13:33:03.986Z,8.30
2019-02-08T13:35:34.809Z,8.10
2019-02-08T13:38:05.481Z,8.10
2019-02-08T13:40:36.145Z,8.20
2019-02-08T13:43:06.977Z,8.30
2019-02-08T13:45:37.908Z,8.60
2019-02-08T13:48:08.676Z,8.80
2019-02-08T13:50:39.419Z,8.70
2019-02-08T13:53:10.062Z,8.90
2019-02-08T13:55:40.834Z,9.10
2019-02-08T13:58:11.481Z,9.20
2019-02-08T14:00:43.753Z,8.90
2019-02-08T14:03:14.521Z,9.10
2019-02-08T14:05:45.351Z,9.30
2019-02-08T14:08:16.097Z,9.60
2019-02-08T14:10:47.193Z,9.80
2019-02-08T14:13:17.891Z,10.20
2019-02-08T14:15:49.250Z,9.90
2019-02-08T14:18:19.842Z,9.50
2019-02-08T14:20:51.198Z,9.30
2019-02-08T14:23:21.821Z,9.10
2019-02-08T14:25:52.571Z,8.80
2019-02-08T14:28:23.288Z,8.40
2019-02-08T14:30:54.036Z,8.20
2019-02-08T14:33:24.771Z,8.20
2019-02-08T14:35:55.999Z,8.50
2019-02-08T14:38:26.957Z,9.10
2019-02-08T14:40:57.632Z,9.50
2019-02-08T14:43:36.303Z,9.50
2019-02-08T14:46:11.691Z,9.30
2019-02-08T14:48:45.028Z,9.00
2019-02-08T14:51:18.315Z,8.70
2019-02-08T14:53:50.510Z,8.60
2019-02-08T14:56:22.884Z,8.50
2019-02-08T14:58:54.612Z,8.50
2019-02-08T15:01:34.957Z,8.40
2019-02-08T15:04:07.726Z,8.40
2019-02-08T15:06:39.375Z,8.30
2019-02-08T15:09:12.569Z,8.10
2019-02-08T15:11:43.219Z,8.00
2019-02-08T15:14:13.949Z,8.10
2019-02-08T15:16:44.981Z,8.00
2019-02-08T15:19:15.706Z,8.00
2019-02-08T15:21:46.336Z,8.00
2019-02-08T15:24:17.001Z,8.00
2019-02-08T15:26:47.711Z,7.90
2019-02-08T15:29:18.446Z,8.00
2019-02-08T15:31:49.244Z,7.90
2019-02-08T15:34:20.015Z,7.90
2019-02-08T15:36:52.533Z,7.80
2019-02-08T15:39:23.275Z,7.70
2019-02-08T15:41:54.640Z,7.80
2019-02-08T15:44:25.431Z,7.80
2019-02-08T15:46:56.292Z,7.80
2019-02-08T15:49:26.983Z,7.60
2019-02-08T15:51:57.632Z,7.70
2019-02-08T15:54:28.301Z,7.60
2019-02-08T15:56:58.946Z,7.60
2019-02-08T15:59:29.618Z,7.60
2019-02-08T16:02:00.282Z,7.60
2019-02-08T16:04:30.928Z,7.50
2019-02-08T16:07:02.239Z,7.50
2019-02-08T16:09:32.926Z,7.40
2019-02-08T16:12:03.572Z,7.40
2019-02-08T16:14:36.249Z,7.30
2019-02-08T16:17:07.828Z,7.40
2019-02-08T16:19:38.506Z,7.30
2019-02-08T16:22:09.352Z,7.30
2019-02-08T16:24:41.453Z,7.20
2019-02-08T16:27:12.179Z,7.30
2019-02-08T16:29:48.110Z,7.30
2019-02-08T16:32:18.800Z,7.30
2019-02-08T16:34:49.476Z,7.20
2019-02-08T16:37:20.593Z,7.10
2019-02-08T16:39:51.982Z,7.10
2019-02-08T16:42:23.929Z,7.20
2019-02-08T16:44:55.329Z,7.20
2019-02-08T16:47:26.077Z,7.10
2019-02-08T16:49:56.790Z,7.20
2019-02-08T16:52:29.193Z,7.10
2019-02-08T16:55:03.210Z,7.10
2019-02-08T16:57:33.920Z,6.90
2019-02-08T17:00:08.345Z,7.00
2019-02-08T17:02:39.145Z,7.00
2019-02-08T17:05:13.175Z,7.00
2019-02-08T17:07:43.838Z,6.90
2019-02-08T17:10:17.268Z,6.90
2019-02-08T17:12:48.821Z,6.90
2019-02-08T17:15:22.903Z,6.90
2019-02-08T17:17:54.029Z,6.80
2019-02-08T17:20:38.045Z,6.90
2019-02-08T17:23:09.050Z,6.70
2019-02-08T17:25:39.706Z,6.80
2019-02-08T17:28:12.014Z,6.70
2019-02-08T17:30:43.410Z,6.60
2019-02-08T17:33:14.127Z,6.70
2019-02-08T17:35:45.242Z,6.70
2019-02-08T17:38:15.971Z,6.70
2019-02-08T17:40:48.218Z,6.60
2019-02-08T17:43:19.265Z,6.60
2019-02-08T17:45:49.925Z,6.50
2019-02-08T17:48:20.550Z,6.50
2019-02-08T17:50:51.228Z,6.50
2019-02-08T17:53:21.854Z,6.50
2019-02-08T17:55:52.680Z,6.50
2019-02-08T17:58:23.515Z,6.50
2019-02-08T18:00:56.467Z,6.60
2019-02-08T18:03:27.546Z,6.60
2019-02-08T18:06:00.129Z,6.50
2019-02-08T18:08:30.995Z,6.50
2019-02-08T18:11:01.748Z,6.50
2019-02-08T18:13:32.448Z,6.50
2019-02-08T18:16:04.164Z,6.50
2019-02-08T18:18:34.933Z,6.50
2019-02-08T18:21:09.887Z,6.40
2019-02-08T18:23:40.904Z,6.50
2019-02-08T18:26:11.733Z,6.50
2019-02-08T18:28:42.455Z,6.40
2019-02-08T18:31:13.099Z,6.40
2019-02-08T18:33:46.959Z,6.30
2019-02-08T18:36:17.576Z,6.30
2019-02-08T18:38:48.271Z,6.40
2019-02-08T18:41:20.773Z,6.40
2019-02-08T18:43:51.466Z,6.30
2019-02-08T18:46:22.161Z,6.20
2019-02-08T18:48:52.882Z,6.20
2019-02-08T18:51:23.704Z,6.20
2019-02-08T18:53:54.420Z,6.10
2019-02-08T18:56:25.153Z,6.20
2019-02-08T18:58:55.799Z,6.10
2019-02-08T19:01:26.735Z,5.90
2019-02-08T19:03:57.396Z,5.90
2019-02-08T19:06:28.034Z,5.90
2019-02-08T19:08:58.667Z,5.80
2019-02-08T19:11:30.004Z,5.80
2019-02-08T19:14:00.731Z,5.80
2019-02-08T19:16:31.511Z,5.60
2019-02-08T19:19:02.516Z,5.50
2019-02-08T19:21:33.277Z,5.40
2019-02-08T19:24:04.040Z,5.40
2019-02-08T19:26:34.738Z,5.40
2019-02-08T19:29:05.442Z,5.30
2019-02-08T19:31:36.056Z,5.20
2019-02-08T19:34:08.721Z,5.20
2019-02-08T19:36:40.327Z,5.10
2019-02-08T19:39:12.050Z,5.20
2019-02-08T19:41:42.740Z,5.10
2019-02-08T19:44:13.476Z,5.10
2019-02-08T19:46:44.110Z,5.10
2019-02-08T19:49:14.940Z,5.00
2019-02-08T19:51:45.663Z,5.10
2019-02-08T19:54:16.483Z,5.10
2019-02-08T19:56:47.177Z,5.20
2019-02-08T19:59:18.032Z,5.10
2019-02-08T20:01:48.884Z,5.10
2019-02-08T20:04:19.709Z,5.00
2019-02-08T20:06:50.405Z,5.00
2019-02-08T20:09:21.242Z,5.10
2019-02-08T20:11:52.041Z,5.00
2019-02-08T20:14:23.488Z,5.00
2019-02-08T20:16:54.181Z,5.00
2019-02-08T20:19:25.087Z,4.90
2019-02-08T20:21:56.349Z,4.90
2019-02-08T20:24:27.038Z,5.00
2019-02-08T20:26:57.721Z,5.00
2019-02-08T20:29:29.047Z,5.00
2019-02-08T20:32:00.073Z,4.90
2019-02-08T20:34:32.784Z,5.00
2019-02-08T20:37:04.206Z,5.10
2019-02-08T20:39:38.930Z,5.00
2019-02-08T20:42:09.700Z,5.00
2019-02-08T20:44:40.419Z,5.00
2019-02-08T20:47:11.454Z,4.90
2019-02-08T20:49:42.414Z,4.80
2019-02-08T20:52:13.411Z,5.00
2019-02-08T20:54:46.707Z,4.90
2019-02-08T20:57:18.870Z,4.80
2019-02-08T20:59:49.749Z,4.80
2019-02-08T21:02:22.592Z,4.80
2019-02-08T21:04:53.924Z,4.80
2019-02-08T21:07:25.650Z,4.80
2019-02-08T21:09:56.404Z,4.90
2019-02-08T21:12:32.811Z,4.80
2019-02-08T21:15:07.276Z,4.70
2019-02-08T21:17:38.332Z,4.60
2019-02-08T21:20:12.160Z,4.60
2019-02-08T21:22:43.182Z,4.80
2019-02-08T21:25:18.612Z,4.80
2019-02-08T21:27:49.310Z,4.80
2019-02-08T21:30:23.905Z,4.80
2019-02-08T21:32:54.935Z,4.80
2019-02-08T21:35:25.723Z,4.90
2019-02-08T21:37:59.157Z,4.90
2019-02-08T21:40:30.057Z,4.90
2019-02-08T21:43:01.552Z,4.80
2019-02-08T21:45:34.896Z,4.80
2019-02-08T21:48:07.007Z,4.70
2019-02-08T21:50:37.901Z,4.80
2019-02-08T21:53:08.880Z,4.80
2019-02-08T21:55:39.786Z,4.80
2019-02-08T21:58:10.543Z,4.90
2019-02-08T22:00:44.175Z,4.80
2019-02-08T22:03:15.986Z,4.80
2019-02-08T22:05:57.627Z,4.80
2019-02-08T22:08:28.681Z,4.90
2019-02-08T22:10:59.568Z,4.90
2019-02-08T22:13:31.645Z,5.00
2019-02-08T22:16:03.448Z,4.80
2019-02-08T22:18:34.380Z,4.90
2019-02-08T22:21:05.214Z,5.10
2019-02-08T22:23:35.860Z,5.00
2019-02-08T22:26:09.901Z,5.00
2019-02-08T22:28:41.409Z,5.00
2019-02-08T22:31:12.071Z,5.00
2019-02-08T22:33:44.853Z,5.10
2019-02-08T22:36:15.702Z,5.00
2019-02-08T22:38:46.454Z,5.00
2019-02-08T22:41:17.607Z,5.00
2019-02-08T22:43:48.394Z,5.20
2019-02-08T22:46:19.338Z,5.10
2019-02-08T22:48:50.049Z,5.10
2019-02-08T22:51:22.072Z,5.00
2019-02-08T22:53:52.784Z,5.00
2019-02-08T22:56:23.996Z,5.10
2019-02-08T22:58:55.383Z,5.00
2019-02-08T23:01:35.393Z,5.00
2019-02-08T23:04:08.578Z,5.10
2019-02-08T23:06:45.508Z,4.90
2019-02-08T23:09:26.161Z,4.80
2019-02-08T23:12:03.844Z,5.00
2019-02-08T23:14:34.870Z,4.90
2019-02-08T23:17:06.257Z,4.90
2019-02-08T23:19:37.097Z,4.90
2019-02-08T23:22:09.972Z,4.90
2019-02-08T23:24:43.055Z,5.00
2019-02-08T23:27:14.332Z,5.00
2019-02-08T23:29:45.703Z,5.10
2019-02-08T23:32:16.764Z,4.90
2019-02-08T23:34:47.601Z,4.90
2019-02-08T23:37:25.710Z,4.90
2019-02-08T23:39:51.779Z,5.00
2019-02-08T23:42:23.754Z,5.00
2019-02-08T23:44:55.029Z,5.00
2019-02-08T23:47:26.263Z,4.90
2019-02-08T23:49:57.468Z,4.80
2019-02-08T23:52:28.601Z,4.90
2019-02-08T23:54:59.686Z,4.90
2019-02-08T23:57:30.923Z,4.90
